Terminal Aerodrome Forecast
Issued by NWS

Home | Current Version | Previous Version | Text Only | Print | Product List | Glossary On
Versions: 1 2 3 4 5 6 7 8 9 10 11 12 13 14 15 16 17 18 19 20 21
000
FTUS41 KBGM 300332 AAA
TAFRME
TAF AMD
KRME 300332Z 3004/3024 11006KT P6SM BKN200
     FM300600 15008KT P6SM BKN080
     FM301300 21012KT P6SM BKN045
     FM301800 23012G19KT 6SM -SHRA BKN040 PROB30 3018/3022 P6SM TS
      BKN040CB=

USA.gov is the U.S. government's official web portal to all federal, state and local government web resources and services.